Time;durP1;ratioP1;P1;durP2;ratioP2;P2;SDS_P1;SDS_P2;PMS_P1;PMS_P2;Temp;Humidity;BMP_temperature;BMP_pressure;BME280_temperature;BME280_humidity;BME280_pressure;Samples;Min_cycle;Max_cycle;Signal;HPM_P1;HPM_P2
2023/03/19 00:03:12;;;;;;;62.00;28.50;;;;;;;11.27;49.90;99291.53;267937;1262;24195;-73
2023/03/19 00:09:15;;;;;;;59.50;28.20;;;;;;;11.14;50.07;99297.48;268661;1270;25336;-73
2023/03/19 00:15:16;;;;;;;59.00;28.00;;;;;;;11.13;49.91;99297.23;267783;1268;25553;-72
2023/03/19 00:21:18;;;;;;;59.80;28.00;;;;;;;11.03;49.97;99297.16;268258;1268;22598;-75
2023/03/19 00:27:20;;;;;;;59.20;27.90;;;;;;;10.81;50.18;99301.59;267467;1270;22601;-75
2023/03/19 00:33:22;;;;;;;63.40;27.90;;;;;;;10.63;50.52;99302.98;267075;1269;22569;-75
2023/03/19 00:39:23;;;;;;;57.20;27.10;;;;;;;10.44;50.60;99311.67;267473;1268;24077;-74
2023/03/19 00:45:25;;;;;;;58.10;27.50;;;;;;;10.45;50.76;99309.23;267445;1266;23899;-74
2023/03/19 00:51:26;;;;;;;54.40;26.80;;;;;;;10.40;50.98;99302.73;266974;1263;22523;-75
2023/03/19 00:57:29;;;;;;;57.20;27.50;;;;;;;10.39;50.83;99296.64;267446;1266;22537;-74
2023/03/19 01:03:30;;;;;;;57.80;26.80;;;;;;;10.31;50.63;99295.21;267259;1270;25438;-74
2023/03/19 01:09:32;;;;;;;53.30;26.80;;;;;;;10.36;50.81;99289.23;267247;1268;22543;-74
2023/03/19 01:15:41;;;;;;;54.60;26.20;;;;;;;10.25;50.88;99283.95;267159;1266;22528;-74
2023/03/19 01:21:45;;;;;;;57.20;26.50;;;;;;;9.94;51.28;99292.67;267745;1262;25281;-73
2023/03/19 01:27:50;;;;;;;52.60;26.20;;;;;;;9.94;50.92;99294.56;267677;1268;22656;-73
2023/03/19 01:33:51;;;;;;;58.10;26.50;;;;;;;9.44;52.24;99288.40;267060;1261;23908;-74
2023/03/19 01:40:14;;;;;;;57.00;25.70;;;;;;;9.83;51.63;99287.15;267282;1259;25832;-78
2023/03/19 01:46:35;;;;;;;52.80;25.00;;;;;;;9.85;51.30;99288.33;267251;1269;22532;-78
2023/03/19 01:52:56;;;;;;;50.40;24.30;;;;;;;9.71;51.46;99286.21;268586;1252;22524;-78
2023/03/19 01:59:11;;;;;;;47.70;22.50;;;;;;;9.54;51.43;99289.38;268533;1266;24205;-78
2023/03/19 02:05:28;;;;;;;48.70;22.30;;;;;;;9.50;51.19;99289.73;268500;1267;25275;-79
2023/03/19 02:11:34;;;;;;;52.20;24.30;;;;;;;9.43;51.18;99293.86;268478;1270;22587;-79
2023/03/19 02:17:38;;;;;;;52.00;23.00;;;;;;;9.20;51.87;99292.48;268619;1262;24442;-79
2023/03/19 02:24:06;;;;;;;53.00;24.40;;;;;;;9.11;51.98;99291.55;268025;1262;22547;-76
2023/03/19 02:30:34;;;;;;;54.40;24.90;;;;;;;8.92;52.31;99291.22;267282;1263;24227;-76
2023/03/19 02:36:44;;;;;;;47.40;22.80;;;;;;;9.07;52.22;99294.58;267307;1262;23427;-73
2023/03/19 02:42:46;;;;;;;50.70;23.40;;;;;;;9.10;51.74;99303.35;267084;1270;22647;-75
2023/03/19 02:48:54;;;;;;;46.00;21.40;;;;;;;9.04;52.03;99300.34;267505;1270;22526;-77
2023/03/19 02:54:55;;;;;;;52.60;21.90;;;;;;;8.91;52.63;99308.59;267597;1270;24259;-75
2023/03/19 03:00:58;;;;;;;52.70;24.70;;;;;;;9.32;52.03;99310.23;268990;1252;26500;-78
2023/03/19 03:07:01;;;;;;;52.50;25.10;;;;;;;9.28;51.85;99314.19;268944;1270;22566;-78
2023/03/19 03:13:04;;;;;;;54.50;24.70;;;;;;;9.37;51.63;99316.04;267458;1265;24213;-75
2023/03/19 03:19:06;;;;;;;52.40;25.40;;;;;;;9.23;52.31;99317.19;267143;1273;22603;-76
2023/03/19 03:25:11;;;;;;;55.60;26.40;;;;;;;9.26;52.07;99317.70;267074;1268;22635;-76
2023/03/19 03:31:13;;;;;;;51.60;24.50;;;;;;;9.03;52.45;99313.33;266797;1269;23326;-76
2023/03/19 03:37:16;;;;;;;56.90;27.60;;;;;;;8.77;53.16;99314.92;267311;1269;22630;-73
2023/03/19 03:43:19;;;;;;;53.30;26.60;;;;;;;8.71;53.36;99322.25;267483;1263;22569;-74
2023/03/19 03:49:22;;;;;;;50.70;25.30;;;;;;;8.73;53.64;99325.83;267403;1269;22529;-75
2023/03/19 03:55:27;;;;;;;51.80;25.30;;;;;;;8.83;52.96;99331.33;266864;1269;22527;-74
2023/03/19 04:01:34;;;;;;;54.70;26.70;;;;;;;8.81;52.99;99339.77;268326;1267;22541;-78
2023/03/19 04:07:39;;;;;;;50.90;24.70;;;;;;;8.85;53.24;99334.25;268618;1266;22557;-81
2023/03/19 04:13:43;;;;;;;55.20;24.90;;;;;;;8.74;53.45;99337.88;267319;1268;23879;-74
2023/03/19 04:19:45;;;;;;;48.70;24.20;;;;;;;8.59;54.03;99332.77;267229;1269;25301;-76
2023/03/19 04:25:57;;;;;;;48.60;23.00;;;;;;;8.43;53.80;99333.98;268160;1269;22638;-78
2023/03/19 04:32:05;;;;;;;47.90;22.50;;;;;;;8.48;53.37;99327.44;268466;1271;25494;-79
2023/03/19 04:38:07;;;;;;;43.90;22.10;;;;;;;8.21;53.86;99326.52;268619;1265;24212;-79
2023/03/19 04:44:12;;;;;;;45.70;22.10;;;;;;;7.96;54.55;99326.41;268630;1266;23300;-77
2023/03/19 04:50:15;;;;;;;47.50;21.70;;;;;;;8.37;53.66;99320.42;267963;1258;22617;-79
2023/03/19 04:56:17;;;;;;;48.20;22.30;;;;;;;8.23;53.97;99323.47;268130;1257;22727;-74
2023/03/19 05:02:20;;;;;;;50.50;24.90;;;;;;;8.41;53.82;99331.27;267312;1259;25467;-75
2023/03/19 05:08:24;;;;;;;52.20;25.20;;;;;;;8.63;53.88;99328.52;267074;1266;22576;-75
2023/03/19 05:14:25;;;;;;;53.90;25.20;;;;;;;8.73;53.44;99323.08;267371;1266;22546;-74
2023/03/19 05:20:37;;;;;;;46.70;23.80;;;;;;;8.66;53.69;99322.73;267378;1266;22506;-73
2023/03/19 05:26:42;;;;;;;47.70;23.60;;;;;;;8.78;53.44;99321.83;267729;1269;25314;-77
2023/03/19 05:32:59;;;;;;;49.20;24.30;;;;;;;8.60;54.33;99324.42;267722;1270;24196;-75
2023/03/19 05:39:14;;;;;;;47.60;23.90;;;;;;;9.09;53.36;99320.06;267224;1269;23240;-76
2023/03/19 05:45:18;;;;;;;52.90;25.70;;;;;;;9.05;53.38;99321.86;266838;1274;22524;-74
2023/03/19 05:51:24;;;;;;;;;;;;;;;9.51;52.93;99320.11;266994;1256;24023;-74
2023/03/19 05:57:26;;;;;;;47.30;21.90;;;;;;;9.63;52.89;99315.45;267536;1269;22769;-75
2023/03/19 06:03:34;;;;;;;49.80;24.30;;;;;;;9.63;52.92;99315.60;267509;1262;22547;-74
2023/03/19 06:09:40;;;;;;;44.60;22.30;;;;;;;9.74;52.78;99318.70;267183;1270;22563;-72
2023/03/19 06:15:42;;;;;;;50.10;24.20;;;;;;;10.05;52.24;99321.70;267777;1272;22527;-76
2023/03/19 06:21:44;;;;;;;45.70;23.00;;;;;;;10.38;51.99;99322.20;267225;1254;26583;-76
2023/03/19 06:27:45;;;;;;;48.20;23.60;;;;;;;10.69;51.74;99323.48;267326;1272;23310;-76
2023/03/19 06:33:55;;;;;;;58.90;27.10;;;;;;;10.87;51.38;99329.73;267334;1256;22529;-77
2023/03/19 06:39:59;;;;;;;63.00;31.90;;;;;;;10.99;51.25;99335.98;267292;1267;23620;-77
2023/03/19 06:46:03;;;;;;;66.40;30.70;;;;;;;11.29;50.79;99339.48;267073;1266;22909;-74
2023/03/19 06:52:05;;;;;;;63.00;30.30;;;;;;;11.87;49.87;99345.15;267437;1266;23171;-74
2023/03/19 06:58:07;;;;;;;56.90;28.80;;;;;;;12.07;49.68;99342.27;267481;1271;22529;-74
2023/03/19 07:04:10;;;;;;;58.90;30.10;;;;;;;12.15;49.67;99341.36;267525;1265;25346;-76
2023/03/19 07:10:12;;;;;;;49.70;25.10;;;;;;;12.27;49.72;99336.72;267759;1269;24032;-77
2023/03/19 07:16:15;;;;;;;58.00;29.40;;;;;;;12.63;49.15;99336.44;267256;1269;25244;-73
2023/03/19 07:22:17;;;;;;;53.00;26.20;;;;;;;12.72;49.08;99333.17;268183;1269;22620;-74
2023/03/19 07:28:19;;;;;;;55.70;27.30;;;;;;;12.76;48.84;99334.21;267987;1269;24282;-74
2023/03/19 07:34:21;;;;;;;50.50;26.10;;;;;;;13.12;48.49;99336.27;269264;1271;24992;-74
2023/03/19 07:40:24;;;;;;;46.80;23.50;;;;;;;13.40;48.12;99329.55;268528;1260;25341;-74
2023/03/19 07:46:27;;;;;;;42.70;22.20;;;;;;;13.63;47.53;99332.38;268659;1268;22554;-73
2023/03/19 07:52:29;;;;;;;41.30;21.40;;;;;;;13.84;46.99;99333.46;268595;1261;136714;-74
2023/03/19 07:58:30;;;;;;;39.80;22.00;;;;;;;14.22;46.39;99330.31;267932;1271;22543;-75
2023/03/19 08:04:32;;;;;;;42.90;22.60;;;;;;;14.58;46.12;99318.14;267363;1269;24223;-75
2023/03/19 08:10:34;;;;;;;40.00;21.60;;;;;;;15.10;45.61;99313.30;269038;1253;22164;-75
2023/03/19 08:16:39;;;;;;;38.30;20.80;;;;;;;15.37;44.89;99310.17;267891;1259;22548;-75
2023/03/19 08:22:41;;;;;;;35.80;19.60;;;;;;;15.47;44.38;99297.05;267236;1272;26619;-74
2023/03/19 08:28:44;;;;;;;37.00;18.50;;;;;;;15.86;43.61;99301.00;267382;1272;22651;-74
2023/03/19 08:34:45;;;;;;;29.70;16.90;;;;;;;15.94;42.98;99296.60;267032;1271;22556;-74
2023/03/19 08:40:50;;;;;;;28.30;16.30;;;;;;;16.23;42.65;99292.59;267502;1269;22755;-74
2023/03/19 08:46:52;;;;;;;23.10;13.20;;;;;;;16.46;42.22;99288.48;267122;1265;23876;-74
2023/03/19 08:52:54;;;;;;;23.80;12.80;;;;;;;16.58;41.31;99292.27;267457;1266;25234;-74
2023/03/19 08:58:56;;;;;;;21.90;12.50;;;;;;;16.57;41.03;99295.80;267764;1257;22645;-74
2023/03/19 09:04:58;;;;;;;18.40;11.10;;;;;;;16.79;40.46;99291.70;267099;1251;22533;-74
2023/03/19 09:11:00;;;;;;;20.10;11.30;;;;;;;16.94;39.94;99297.41;267270;1257;24325;-74
2023/03/19 09:17:03;;;;;;;17.20;10.10;;;;;;;17.19;39.51;99298.07;267376;1258;22581;-74
2023/03/19 09:23:05;;;;;;;19.40;10.80;;;;;;;17.17;39.80;99288.02;267556;1262;25459;-74
2023/03/19 09:29:07;;;;;;;18.90;10.20;;;;;;;17.25;39.61;99284.05;267432;1262;22615;-74
2023/03/19 09:35:09;;;;;;;14.30;8.60;;;;;;;17.50;38.83;99279.81;267029;1270;22569;-74
2023/03/19 09:41:21;;;;;;;15.00;8.20;;;;;;;17.57;38.57;99276.49;267277;1270;25468;-77
2023/03/19 09:47:27;;;;;;;13.00;6.90;;;;;;;17.76;38.18;99266.54;267353;1266;22566;-75
2023/03/19 09:53:38;;;;;;;12.70;6.80;;;;;;;18.45;37.10;99259.15;267404;1272;26309;-73
2023/03/19 09:59:40;;;;;;;11.30;6.00;;;;;;;18.85;36.44;99252.94;267146;1267;22553;-73
2023/03/19 10:06:20;;;;;;;12.90;6.60;;;;;;;18.98;35.79;99252.98;267079;1273;22664;-73
2023/03/19 10:12:25;;;;;;;11.70;6.50;;;;;;;19.73;35.12;99248.52;267812;1272;25398;-77
2023/03/19 10:18:35;;;;;;;10.80;6.00;;;;;;;19.81;34.91;99247.84;267310;1268;26293;-77
2023/03/19 10:24:39;;;;;;;10.00;6.20;;;;;;;19.78;35.06;99242.52;267405;1267;22566;-76
2023/03/19 10:30:44;;;;;;;8.50;5.40;;;;;;;19.87;34.99;99235.55;267044;1269;25240;-71
2023/03/19 10:36:45;;;;;;;14.10;7.60;;;;;;;19.83;35.42;99232.11;268173;1267;22530;-75
2023/03/19 10:43:13;;;;;;;11.80;6.60;;;;;;;19.59;35.60;99225.55;268930;1269;22620;-75
2023/03/19 10:49:15;;;;;;;11.20;6.70;;;;;;;19.48;35.22;99213.61;267210;1271;23778;-76
2023/03/19 10:55:23;;;;;;;11.80;6.20;;;;;;;19.83;34.83;99202.25;268375;1263;22523;-75
2023/03/19 11:01:35;;;;;;;15.30;8.90;;;;;;;19.82;34.94;99197.58;268583;1269;23878;-74
2023/03/19 11:07:37;;;;;;;14.20;8.40;;;;;;;20.19;34.59;99192.46;268315;1272;22538;-73
2023/03/19 11:13:39;;;;;;;12.10;7.20;;;;;;;21.04;34.20;99181.36;267507;1271;24623;-74
2023/03/19 11:19:41;;;;;;;12.60;7.70;;;;;;;20.55;33.92;99187.13;267299;1264;25403;-72
2023/03/19 11:25:54;;;;;;;13.30;7.20;;;;;;;20.64;33.52;99180.12;269525;1273;24247;-71
2023/03/19 11:32:25;;;;;;;14.70;8.00;;;;;;;21.01;33.09;99172.75;267796;1267;25334;-75
2023/03/19 11:38:35;;;;;;;12.50;7.60;;;;;;;20.98;33.27;99158.92;267654;1269;22526;-75
2023/03/19 11:45:01;;;;;;;12.00;7.60;;;;;;;20.86;33.30;99159.65;267369;1269;22660;-76
2023/03/19 11:51:16;;;;;;;10.80;6.40;;;;;;;21.18;32.62;99148.23;267296;1261;22966;-73
2023/03/19 11:57:27;;;;;;;6.70;4.20;;;;;;;21.46;31.83;99131.23;267926;1267;22690;-73
2023/03/19 12:03:44;;;;;;;9.20;5.30;;;;;;;21.27;31.13;99132.13;268885;1267;22586;-73
2023/03/19 12:09:54;;;;;;;6.60;4.00;;;;;;;21.07;31.66;99131.29;268202;1269;22338;-73
2023/03/19 12:16:14;;;;;;;7.70;4.70;;;;;;;21.30;30.65;99121.61;268162;1260;23102;-73
2023/03/19 12:22:49;;;;;;;6.30;4.30;;;;;;;21.24;30.58;99122.48;268034;1261;25587;-72
2023/03/19 12:29:05;;;;;;;6.60;4.00;;;;;;;21.31;29.86;99115.57;267713;1270;22263;-72
2023/03/19 12:35:15;;;;;;;6.70;4.30;;;;;;;20.87;30.55;99104.77;268931;1266;24319;-73
2023/03/19 12:41:21;;;;;;;6.90;4.70;;;;;;;21.50;30.23;99088.23;268689;1270;22550;-73
2023/03/19 12:47:31;;;;;;;6.50;4.10;;;;;;;21.61;30.09;99084.23;267202;1267;22533;-76
2023/03/19 12:53:49;;;;;;;6.70;3.90;;;;;;;21.62;30.42;99079.52;269276;1267;22323;-72
2023/03/19 12:59:59;;;;;;;6.00;3.90;;;;;;;21.60;29.99;99073.63;269747;1267;22528;-72
2023/03/19 13:06:08;;;;;;;8.10;4.10;;;;;;;21.93;29.57;99066.32;270469;1251;22627;-72
2023/03/19 13:12:12;;;;;;;7.20;4.20;;;;;;;21.89;29.72;99065.95;270298;1267;22251;-71
2023/03/19 13:18:45;;;;;;;7.40;4.60;;;;;;;22.18;30.08;99060.30;274760;1267;22968;-72
2023/03/19 13:24:47;;;;;;;6.10;4.00;;;;;;;22.48;30.56;99052.66;274095;1270;22656;-72
2023/03/19 13:31:04;;;;;;;6.80;4.10;;;;;;;22.94;30.20;99047.77;267153;1264;22564;-72
2023/03/19 13:37:12;;;;;;;9.00;4.00;;;;;;;23.13;29.59;99043.95;267398;1251;22691;-73
2023/03/19 13:43:36;;;;;;;7.20;4.90;;;;;;;23.66;29.17;99033.54;267091;1268;26476;-72
2023/03/19 13:50:04;;;;;;;7.90;4.90;;;;;;;23.16;29.32;99033.36;267255;1259;22527;-73
2023/03/19 13:56:11;;;;;;;8.00;5.00;;;;;;;23.31;29.34;99028.35;267278;1268;23986;-71
2023/03/19 14:02:30;;;;;;;7.70;4.80;;;;;;;23.14;29.46;99027.80;266972;1259;24913;-71
2023/03/19 14:08:42;;;;;;;8.30;4.30;;;;;;;22.75;29.60;99027.37;267348;1267;22491;-72
2023/03/19 14:14:46;;;;;;;6.40;3.90;;;;;;;22.53;29.81;99022.86;267612;1259;22566;-72
2023/03/19 14:21:01;;;;;;;8.30;4.30;;;;;;;22.85;29.57;99019.79;267709;1270;25413;-71
2023/03/19 14:27:16;;;;;;;7.70;4.10;;;;;;;22.60;30.07;99018.44;267777;1262;23914;-73
2023/03/19 14:33:40;;;;;;;8.50;3.90;;;;;;;22.31;30.23;99023.16;267422;1251;22547;-73
2023/03/19 14:39:43;;;;;;;7.20;4.40;;;;;;;22.11;30.36;99027.15;267311;1268;23868;-73
2023/03/19 14:46:02;;;;;;;8.90;4.60;;;;;;;21.94;30.61;99030.16;267775;1267;22686;-72
2023/03/19 14:52:14;;;;;;;7.60;4.10;;;;;;;21.92;30.58;99025.66;267428;1267;22590;-72
2023/03/19 14:58:21;;;;;;;7.70;4.00;;;;;;;22.04;30.42;99025.28;268552;1260;22556;-71
2023/03/19 15:04:27;;;;;;;5.70;3.70;;;;;;;21.62;30.99;99026.03;267830;1261;25344;-72
2023/03/19 15:10:34;;;;;;;7.20;4.10;;;;;;;21.76;30.94;99027.06;267443;1259;22557;-71
2023/03/19 15:16:53;;;;;;;8.40;4.00;;;;;;;21.99;30.81;99024.02;267066;1260;22650;-74
2023/03/19 15:23:00;;;;;;;6.80;4.20;;;;;;;22.37;30.58;99024.50;267486;1259;25508;-81
2023/03/19 15:29:02;;;;;;;6.90;4.00;;;;;;;22.60;30.40;99015.26;268264;1273;22554;-81
2023/03/19 15:35:09;;;;;;;6.70;3.60;;;;;;;22.29;30.91;99010.71;268678;1251;22523;-83
2023/03/19 15:41:40;;;;;;;8.40;3.90;;;;;;;21.81;31.19;99016.17;268808;1268;22562;-79
2023/03/19 15:48:13;;;;;;;6.20;3.40;;;;;;;21.58;31.54;99025.54;268510;1267;23323;-79
2023/03/19 15:54:15;;;;;;;5.60;3.40;;;;;;;21.36;31.82;99035.15;267577;1270;22971;-72
2023/03/19 16:00:17;;;;;;;6.50;3.50;;;;;;;21.38;32.23;99037.04;268329;1267;22697;-76
2023/03/19 16:06:29;;;;;;;5.90;3.60;;;;;;;21.26;32.40;99035.55;267618;1255;22531;-75
2023/03/19 16:12:38;;;;;;;6.10;3.50;;;;;;;20.52;33.06;99041.40;268820;1266;24232;-72
2023/03/19 16:18:44;;;;;;;8.50;3.80;;;;;;;20.60;33.34;99044.66;268314;1262;22531;-76
2023/03/19 16:24:47;;;;;;;7.50;4.40;;;;;;;20.57;33.68;99046.33;267771;1266;22711;-72
2023/03/19 16:30:49;;;;;;;5.60;4.00;;;;;;;20.31;33.97;99050.67;268346;1262;25745;-74
2023/03/19 16:36:51;;;;;;;7.60;4.30;;;;;;;20.42;33.99;99061.91;268046;1259;25241;-73
2023/03/19 16:42:54;;;;;;;7.60;4.50;;;;;;;20.13;34.44;99063.36;269027;1255;24231;-72
2023/03/19 16:48:56;;;;;;;6.70;4.30;;;;;;;19.99;34.84;99060.16;267353;1257;24362;-71
2023/03/19 16:54:58;;;;;;;7.60;4.10;;;;;;;19.76;35.09;99057.34;270576;1266;25450;-73
2023/03/19 17:01:01;;;;;;;7.60;4.30;;;;;;;19.58;35.43;99070.30;268506;1266;22331;-72
2023/03/19 17:07:03;;;;;;;7.30;3.90;;;;;;;19.42;35.63;99074.02;270273;1259;22604;-72
2023/03/19 17:13:05;;;;;;;9.20;4.90;;;;;;;19.20;36.06;99085.91;269342;1259;22388;-72
2023/03/19 17:19:15;;;;;;;8.50;4.70;;;;;;;18.99;36.29;99085.87;269283;1269;24240;-73
2023/03/19 17:25:19;;;;;;;8.60;4.60;;;;;;;18.76;36.51;99089.24;269169;1253;22563;-72
2023/03/19 17:31:30;;;;;;;7.70;4.20;;;;;;;18.47;36.84;99089.63;269046;1266;22395;-72
2023/03/19 17:37:31;;;;;;;7.30;4.30;;;;;;;18.28;37.09;99083.65;267503;1274;22780;-75
2023/03/19 17:43:33;;;;;;;9.20;4.70;;;;;;;18.09;37.16;99088.15;269047;1265;24236;-76
2023/03/19 17:49:35;;;;;;;8.80;4.50;;;;;;;17.78;37.88;99093.64;268836;1266;22554;-76
2023/03/19 17:55:36;;;;;;;10.50;4.70;;;;;;;17.70;37.89;99094.70;269591;1267;23278;-76
2023/03/19 18:01:41;;;;;;;9.40;4.90;;;;;;;17.59;38.04;99098.39;268764;1268;22637;-76
2023/03/19 18:07:46;;;;;;;8.20;4.70;;;;;;;17.40;38.35;99097.17;269880;1268;22562;-76
2023/03/19 18:13:48;;;;;;;7.10;4.40;;;;;;;17.38;38.39;99097.61;269047;1271;22753;-75
2023/03/19 18:19:51;;;;;;;8.90;4.70;;;;;;;17.30;38.65;99103.45;268126;1266;22573;-76
2023/03/19 18:25:52;;;;;;;7.90;5.10;;;;;;;17.19;39.12;99108.02;268519;1269;22611;-76
2023/03/19 18:32:02;;;;;;;9.30;5.00;;;;;;;17.08;39.28;99104.86;268390;1268;22564;-76
2023/03/19 18:38:34;;;;;;;10.00;5.50;;;;;;;17.06;39.06;99114.88;268586;1269;23328;-77
2023/03/19 18:45:27;;;;;;;11.90;5.70;;;;;;;16.91;39.77;99118.77;268489;1266;22642;-74
2023/03/19 18:51:44;;;;;;;12.50;5.90;;;;;;;16.74;40.61;99119.52;268639;1266;22569;-77
2023/03/19 18:58:03;;;;;;;9.10;5.90;;;;;;;16.53;40.89;99126.70;268361;1269;23354;-80
2023/03/19 19:04:05;;;;;;;13.10;7.20;;;;;;;16.38;40.98;99123.03;269236;1271;22987;-74
2023/03/19 19:10:10;;;;;;;14.80;8.90;;;;;;;16.19;41.23;99115.54;267614;1259;22614;-74
2023/03/19 19:16:19;;;;;;;22.10;10.90;;;;;;;16.23;41.19;99117.39;268473;1264;22603;-71
2023/03/19 19:22:21;;;;;;;22.60;12.90;;;;;;;16.03;41.48;99122.42;267490;1265;22557;-72
2023/03/19 19:28:26;;;;;;;18.50;9.80;;;;;;;15.90;41.69;99121.83;267718;1257;23019;-72
2023/03/19 19:34:28;;;;;;;14.50;7.50;;;;;;;15.80;42.48;99123.11;269518;1259;22264;-72
2023/03/19 19:40:30;;;;;;;14.10;8.00;;;;;;;15.77;42.61;99125.48;268114;1273;22581;-79
2023/03/19 19:46:33;;;;;;;19.80;8.50;;;;;;;15.67;42.44;99127.39;269056;1268;23171;-76
2023/03/19 19:52:35;;;;;;;14.50;7.60;;;;;;;15.54;42.82;99126.13;268670;1267;352589;-80
2023/03/19 19:58:39;;;;;;;13.10;6.90;;;;;;;15.47;43.21;99135.35;269281;1266;24051;-77
2023/03/19 20:04:41;;;;;;;14.10;7.00;;;;;;;15.29;43.25;99136.04;268298;1267;26570;-76
2023/03/19 20:10:43;;;;;;;15.80;9.50;;;;;;;15.28;43.13;99135.48;267786;1266;22557;-81
2023/03/19 20:16:46;;;;;;;13.70;7.40;;;;;;;15.17;43.04;99138.38;268349;1260;23029;-82
2023/03/19 20:22:48;;;;;;;14.80;8.10;;;;;;;15.25;43.52;99138.61;267683;1265;22539;-74
2023/03/19 20:28:50;;;;;;;15.00;7.60;;;;;;;15.29;43.59;99133.38;267637;1265;22527;-73
2023/03/19 20:34:54;;;;;;;19.10;9.10;;;;;;;15.02;44.49;99135.77;267519;1268;22568;-76
2023/03/19 20:40:56;;;;;;;18.40;9.70;;;;;;;15.14;43.95;99137.16;269217;1254;22567;-78
2023/03/19 20:46:58;;;;;;;17.20;9.00;;;;;;;15.10;44.05;99140.23;269500;1269;25437;-76
2023/03/19 20:53:02;;;;;;;18.20;9.00;;;;;;;14.94;44.18;99138.31;267744;1266;22523;-75
2023/03/19 21:07:52;;;;;;;17.80;8.70;;;;;;;14.87;45.32;99135.48;266905;1273;22597;-75
2023/03/19 21:13:54;;;;;;;15.50;7.90;;;;;;;14.87;45.43;99135.65;266421;1274;23288;-76
2023/03/19 21:19:56;;;;;;;16.70;8.40;;;;;;;14.76;45.60;99139.27;266299;1273;24864;-76
2023/03/19 21:25:59;;;;;;;13.90;7.90;;;;;;;14.66;45.80;99141.32;266461;1267;22563;-76
2023/03/19 21:32:01;;;;;;;15.10;8.70;;;;;;;14.59;45.49;99142.82;268030;1274;23412;-78
2023/03/19 21:38:02;;;;;;;18.20;9.70;;;;;;;14.83;45.12;99142.65;266769;1261;22587;-75
2023/03/19 21:44:13;;;;;;;16.90;8.70;;;;;;;14.57;45.35;99144.16;268209;1251;22530;-75
2023/03/19 21:50:17;;;;;;;18.00;9.20;;;;;;;14.57;46.11;99144.20;267779;1269;22563;-77
2023/03/19 21:56:31;;;;;;;17.90;9.90;;;;;;;14.40;46.47;99145.66;267919;1269;22583;-78
2023/03/19 22:02:42;;;;;;;18.50;9.80;;;;;;;14.40;46.73;99143.65;268805;1256;24199;-76
2023/03/19 22:08:46;;;;;;;17.40;9.10;;;;;;;14.25;47.29;99142.95;268032;1262;22559;-73
2023/03/19 22:14:51;;;;;;;21.90;10.40;;;;;;;14.27;47.36;99143.19;267758;1267;22558;-77
2023/03/19 22:20:53;;;;;;;22.10;11.50;;;;;;;14.27;47.17;99140.54;268528;1257;25295;-75
2023/03/19 22:27:00;;;;;;;23.20;11.60;;;;;;;14.19;47.27;99136.12;267390;1262;22550;-75
2023/03/19 22:33:13;;;;;;;21.20;10.70;;;;;;;14.02;47.58;99134.52;267326;1269;22554;-76
2023/03/19 22:39:17;;;;;;;17.60;10.20;;;;;;;13.94;47.70;99132.26;267961;1269;22536;-76
2023/03/19 22:45:29;;;;;;;20.20;9.90;;;;;;;13.79;48.18;99131.99;267190;1271;22575;-76
2023/03/19 22:51:31;;;;;;;29.70;14.40;;;;;;;13.62;48.55;99129.83;266902;1270;22531;-76
2023/03/19 22:57:32;;;;;;;22.50;11.10;;;;;;;13.55;48.88;99133.14;267720;1255;22527;-77
2023/03/19 23:03:34;;;;;;;23.40;12.70;;;;;;;13.62;49.14;99133.45;268938;1267;26558;-78
2023/03/19 23:09:36;;;;;;;25.30;13.80;;;;;;;13.59;49.10;99138.10;267385;1268;24496;-78
2023/03/19 23:15:38;;;;;;;25.40;13.60;;;;;;;13.48;49.48;99140.11;268204;1270;22518;-77
2023/03/19 23:21:40;;;;;;;22.70;12.40;;;;;;;13.57;49.26;99135.61;268302;1268;22703;-74
2023/03/19 23:27:42;;;;;;;22.40;12.30;;;;;;;13.51;49.53;99134.42;267330;1263;24196;-74
2023/03/19 23:33:47;;;;;;;22.80;13.20;;;;;;;13.60;49.51;99129.43;267051;1260;22544;-74
2023/03/19 23:39:49;;;;;;;29.10;15.10;;;;;;;13.58;49.61;99124.70;267982;1271;22756;-73
2023/03/19 23:45:51;;;;;;;37.70;17.80;;;;;;;13.56;49.94;99124.40;268050;1269;22550;-74
2023/03/19 23:51:52;;;;;;;37.40;18.70;;;;;;;13.56;49.93;99123.27;267708;1256;22585;-71
2023/03/19 23:57:55;;;;;;;37.60;18.80;;;;;;;13.64;49.69;99121.01;267715;1265;22531;-71
